Bookmark and Share
Track history (hours):
 

M/T Filos

Last reported at 2014-Apr-17 08:33 UTC. Time now 2014-Apr-17 09:34 UTC.
Position N 52°09' E 003°38'.

Length 180 m; draft 7.4 m.

Type: Tanker. MMSI: 224561000.

NotesDate/timePositionNaut miles runAvg speedWind from/ knotsBaromVisibWave heightAir tempDewpointWater temp
2014-Apr-17 08:33N 52°09' E 003°38'0 0.0
2014-Apr-17 07:30N 52°09' E 003°38'0 0.0
2014-Apr-17 06:30N 52°09' E 003°38'0 0.0
2014-Apr-17 05:33N 52°09' E 003°38'0 0.0
2014-Apr-17 04:33N 52°09' E 003°38'0 0.0
2014-Apr-17 03:33N 52°09' E 003°38'0 0.0
2014-Apr-17 02:21N 52°09' E 003°38'0 0.0
2014-Apr-17 01:33N 52°09' E 003°38'0 0.1
2014-Apr-17 00:33N 52°09' E 003°38'0 0.1
2014-Apr-16 23:33N 52°09' E 003°38'0 0.0
2014-Apr-16 22:33N 52°09' E 003°38'0 0.0
2014-Apr-16 21:33N 52°09' E 003°38'0 0.0
2014-Apr-16 20:33N 52°09' E 003°38'0 0.0
2014-Apr-16 19:33N 52°09' E 003°38'9 9.6
2014-Apr-16 18:33N 52°04' E 003°51'10 9.6
2014-Apr-16 17:33N 51°59' E 004°04'1010.1
2014-Apr-16 16:33N 51°54' E 004°18'1 1.1
2014-Apr-16 15:30N 51°53' E 004°19'0 0.0
2014-Apr-16 13:30N 51°53' E 004°19'0 0.0
2014-Apr-16 12:30N 51°53' E 004°19'0 0.0
2014-Apr-16 08:33N 51°53' E 004°19'0 0.0
2014-Apr-16 07:24N 51°53' E 004°19'0 0.0
2014-Apr-16 03:30N 51°53' E 004°19'0 0.0
2014-Apr-16 02:24N 51°53' E 004°19'0 0.0
2014-Apr-16 01:30N 51°53' E 004°19'0 0.0
2014-Apr-16 00:24N 51°53' E 004°19'0 0.0
2014-Apr-15 23:33N 51°53' E 004°19'0 0.0
2014-Apr-15 21:30N 51°53' E 004°19'1 1.2
2014-Apr-15 20:33N 51°54' E 004°18'7 6.8
2014-Apr-15 19:34N 51°58' E 004°09'8 7.7
2014-Apr-15 18:33N 52°00' E 003°57'14 9.4
2014-Apr-15 17:03N 51°57' E 003°34'510.8
2014-Apr-15 16:33N 51°56' E 003°26'1111.1
2014-Apr-15 15:31N 51°52' E 003°08'22 7.5
2014-Apr-15 12:33N 51°44' E 002°35'1111.4
2014-Apr-15 11:33N 51°35' E 002°23'1110.8
2014-Apr-15 10:33N 51°27' E 002°14'1110.6
2014-Apr-15 09:33N 51°17' E 002°07'9 9.2
2014-Apr-15 08:34N 51°11' E 001°56'9 8.5
2014-Apr-15 07:30N 51°06' E 001°44'7 7.6
2014-Apr-15 06:34N 51°01' E 001°36'41 8.2
2014-Apr-15 01:33N 50°29' E 000°54'10 9.8
2014-Apr-15 00:34N 50°27' E 000°39'10 9.9
2014-Apr-14 23:34N 50°24' E 000°24'6112.3
2014-Apr-14 18:34N 50°07' W 001°08'  
2014-Apr-11 09:17N 39°21' W 009°57'2111.0
2014-Apr-11 07:23N 38°60' W 009°57'1210.7
2014-Apr-11 06:18N 38°48' W 009°57'4010.6
2014-Apr-11 02:33N 38°09' W 009°47'1110.9
2014-Apr-11 01:34N 37°59' W 009°44'1110.9
2014-Apr-11 00:33N 37°48' W 009°41'1110.7
2014-Apr-10 23:32N 37°37' W 009°38'1310.5
2014-Apr-10 22:16N 37°24' W 009°34'710.4
2014-Apr-10 21:34N 37°17' W 009°32'1110.5
2014-Apr-10 20:32N 37°07' W 009°29'1010.3
2014-Apr-10 19:33N 36°57' W 009°26'1010.4
2014-Apr-10 18:34N 36°48' W 009°20'1210.6
2014-Apr-10 17:23N 36°40' W 009°08'1010.7
2014-Apr-10 16:25N 36°37' W 008°56'1010.9
2014-Apr-10 15:33N 36°34' W 008°45'1111.3
2014-Apr-10 14:33N 36°31' W 008°31'1111.5
2014-Apr-10 13:33N 36°28' W 008°18'1211.3
2014-Apr-10 12:28N 36°24' W 008°03'1411.2
2014-Apr-10 11:12N 36°20' W 007°46'10610.9
2014-Apr-10 01:28N 35°58' W 005°38'9 9.4
2014-Apr-10 00:33N 35°59' W 005°28'8 8.3
2014-Apr-09 23:33N 35°55' W 005°19'1 0.7
2014-Apr-09 22:32N 35°54' W 005°19'0 0.0
2014-Apr-09 21:32N 35°54' W 005°19'1 1.5
2014-Apr-09 20:33N 35°55' W 005°19'0 0.3
2014-Apr-09 19:33N 35°55' W 005°18'5 5.3
2014-Apr-09 18:33N 35°57' W 005°12'19411.4
2014-Apr-09 01:31N 36°59' W 001°23'4912.2
2014-Apr-08 21:32N 37°31' W 000°37'1211.9
2014-Apr-08 20:33N 37°41' W 000°28'1211.9
2014-Apr-08 19:33N 37°51' W 000°20'1211.8
2014-Apr-08 18:33N 38°00' W 000°12'1211.9
2014-Apr-08 17:33N 38°11' W 000°04'8711.9
2014-Apr-08 10:14N 39°22' E 001°01'3311.7
2014-Apr-08 07:23N 39°48' E 001°27'911.2
2014-Apr-08 06:33N 39°56' E 001°34'1110.8
2014-Apr-08 05:33N 40°04' E 001°43'1110.9
2014-Apr-08 04:33N 40°13' E 001°51'1111.3
2014-Apr-08 03:33N 40°22' E 002°00'1211.6
2014-Apr-08 02:33N 40°31' E 002°09'1211.7
2014-Apr-08 01:33N 40°41' E 002°18'1211.8
2014-Apr-08 00:33N 40°50' E 002°28'1211.7
2014-Apr-07 23:33N 40°59' E 002°37'1211.6
2014-Apr-07 22:32N 41°09' E 002°47'1111.4
2014-Apr-07 21:33N 41°18' E 002°56'1312.2
2014-Apr-07 20:31N 41°28' E 003°06'1111.0
2014-Apr-07 19:33N 41°36' E 003°14'2210.8
2014-Apr-07 17:34N 41°53' E 003°32'1110.9
2014-Apr-07 16:33N 42°02' E 003°42'1110.8
2014-Apr-07 15:33N 42°10' E 003°51'1210.8
2014-Apr-07 14:29N 42°19' E 004°01'1010.1
2014-Apr-07 13:30N 42°27' E 004°10'1112.0
2014-Apr-07 12:33N 42°35' E 004°19'1111.6
2014-Apr-07 11:33N 42°44' E 004°29'1211.5
2014-Apr-07 10:33N 42°53' E 004°40'1110.7
2014-Apr-07 09:33N 43°02' E 004°48'1111.3
2014-Apr-07 08:33N 43°10' E 004°59'  

Dump ship's entire track history

sailing weather and tide predictions

M/T Filos — 9HQB8 — position and weather